Time;durP1;ratioP1;P1;durP2;ratioP2;P2;SDS_P1;SDS_P2;PMS_P1;PMS_P2;Temp;Humidity;BMP_temperature;BMP_pressure;BME280_temperature;BME280_humidity;BME280_pressure;Samples;Min_cycle;Max_cycle;Signal;HPM_P1;HPM_P2
2022/03/26 00:00:00;;;;;;;10.07;9.30;;;-2.30;99.90;;;;;;5084578;28;21100;-62
2022/03/26 00:02:39;;;;;;;12.50;11.10;;;-2.40;99.90;;;;;;5082000;27;20571;-62
2022/03/26 00:05:19;;;;;;;12.82;11.70;;;-2.50;99.90;;;;;;5084552;28;20668;-62
2022/03/26 00:07:59;;;;;;;11.32;10.43;;;-2.60;99.90;;;;;;5106187;27;20569;-61
2022/03/26 00:10:39;;;;;;;11.38;10.35;;;-2.60;99.90;;;;;;5147296;27;20556;-62
2022/03/26 00:13:20;;;;;;;12.88;11.77;;;-2.60;99.90;;;;;;5127245;27;21015;-61
2022/03/26 00:16:01;;;;;;;12.68;11.57;;;-2.60;99.90;;;;;;5086151;27;20904;-62
2022/03/26 00:18:40;;;;;;;10.93;9.68;;;-2.70;99.90;;;;;;5086206;28;20551;-62
2022/03/26 00:21:20;;;;;;;10.55;9.63;;;-2.70;99.90;;;;;;5078771;27;20597;-62
2022/03/26 00:24:00;;;;;;;9.50;8.65;;;-2.70;99.90;;;;;;5068032;27;20569;-62
2022/03/26 00:26:39;;;;;;;11.15;9.85;;;-2.70;99.90;;;;;;5106075;27;20550;-62
2022/03/26 00:29:19;;;;;;;11.73;10.73;;;-2.70;99.90;;;;;;5085645;28;20557;-61
2022/03/26 00:31:59;;;;;;;11.68;10.70;;;-2.80;99.90;;;;;;5106487;27;20569;-62
2022/03/26 00:34:39;;;;;;;12.52;11.45;;;-2.80;99.90;;;;;;5086037;27;20577;-62
2022/03/26 00:37:19;;;;;;;11.52;10.48;;;-2.70;99.90;;;;;;5147856;27;20526;-61
2022/03/26 00:39:59;;;;;;;11.60;10.50;;;-2.50;99.90;;;;;;5105874;27;20562;-61
2022/03/26 00:42:38;;;;;;;10.73;9.82;;;-2.70;99.90;;;;;;5086355;27;20589;-61
2022/03/26 00:45:19;;;;;;;10.43;9.63;;;-2.80;99.90;;;;;;5086848;27;20553;-62
2022/03/26 00:48:00;;;;;;;10.52;9.68;;;-2.90;99.90;;;;;;5127981;27;21052;-61
2022/03/26 00:50:40;;;;;;;10.85;9.57;;;-3.10;99.90;;;;;;5106402;27;20577;-62
2022/03/26 00:53:19;;;;;;;10.30;9.32;;;-3.20;99.90;;;;;;5127137;27;20536;-61
2022/03/26 00:55:59;;;;;;;13.43;10.88;;;-3.30;99.90;;;;;;5086088;27;20569;-62
2022/03/26 00:58:39;;;;;;;12.02;10.77;;;-3.40;99.90;;;;;;5086745;28;21060;-62
2022/03/26 01:01:19;;;;;;;11.63;10.40;;;-3.40;99.90;;;;;;5125255;27;20572;-61
2022/03/26 01:03:59;;;;;;;13.02;10.57;;;-3.30;99.90;;;;;;5159999;27;20561;-61
2022/03/26 01:06:38;;;;;;;10.15;9.20;;;-3.20;99.90;;;;;;5105518;27;20542;-62
2022/03/26 01:09:18;;;;;;;11.38;9.95;;;-3.40;99.90;;;;;;5085587;27;20569;-62
2022/03/26 01:11:58;;;;;;;12.77;11.40;;;-3.40;99.90;;;;;;5082347;27;21046;-62
2022/03/26 01:14:38;;;;;;;11.40;10.35;;;-3.10;99.90;;;;;;5084756;27;21072;-61
2022/03/26 01:17:18;;;;;;;11.70;10.52;;;-3.00;99.90;;;;;;5085876;28;20923;-61
2022/03/26 01:19:59;;;;;;;12.13;10.93;;;-3.10;99.90;;;;;;5085497;27;20577;-61
2022/03/26 01:22:39;;;;;;;12.98;11.10;;;-3.30;99.90;;;;;;5147428;27;20554;-62
2022/03/26 01:25:19;;;;;;;11.55;10.57;;;-3.40;99.90;;;;;;5085761;27;20539;-61
2022/03/26 01:27:59;;;;;;;11.43;10.23;;;-3.50;99.90;;;;;;5126888;27;20548;-61
2022/03/26 01:30:38;;;;;;;12.30;10.57;;;-3.50;99.90;;;;;;5082986;27;20585;-62
2022/03/26 01:33:18;;;;;;;11.43;10.45;;;-3.50;99.90;;;;;;5084727;27;20573;-62
2022/03/26 01:35:58;;;;;;;11.00;9.90;;;-3.50;99.90;;;;;;5084755;27;21080;-62
2022/03/26 01:38:38;;;;;;;11.65;10.38;;;-3.60;99.90;;;;;;5106566;27;20558;-60
2022/03/26 01:41:19;;;;;;;13.02;11.65;;;-3.60;99.90;;;;;;5106101;27;20562;-61
2022/03/26 01:43:59;;;;;;;11.45;10.05;;;-3.60;99.90;;;;;;5106738;27;20538;-61
2022/03/26 01:46:50;;;;;;;12.52;11.25;;;-3.60;99.90;;;;;;5086270;28;20552;-62
2022/03/26 01:49:30;;;;;;;11.38;10.27;;;-3.70;99.90;;;;;;5085819;27;20535;-61
2022/03/26 01:52:10;;;;;;;13.18;11.90;;;-3.70;99.90;;;;;;5138523;27;20574;-61
2022/03/26 01:54:50;;;;;;;11.93;10.88;;;-3.80;99.90;;;;;;5159998;27;20537;-62
2022/03/26 01:57:30;;;;;;;12.15;10.95;;;-3.80;99.90;;;;;;5105592;27;20672;-62
2022/03/26 02:00:11;;;;;;;11.63;10.45;;;-3.70;99.90;;;;;;5106003;27;21012;-62
2022/03/26 02:02:51;;;;;;;12.27;11.27;;;-3.60;99.90;;;;;;5106872;27;20574;-61
2022/03/26 02:05:32;;;;;;;12.82;11.52;;;-3.50;99.90;;;;;;5083558;27;20585;-61
2022/03/26 02:08:12;;;;;;;11.95;10.95;;;-3.60;99.90;;;;;;5104962;27;20926;-61
2022/03/26 02:10:52;;;;;;;12.38;10.70;;;-3.60;99.90;;;;;;5081050;27;20591;-62
2022/03/26 02:13:50;;;;;;;11.15;9.88;;;-3.50;99.90;;;;;;5086287;27;20552;-61
2022/03/26 02:16:31;;;;;;;12.48;11.00;;;-3.50;99.90;;;;;;5086245;27;20576;-62
2022/03/26 02:19:11;;;;;;;13.05;11.82;;;-3.60;99.90;;;;;;5105590;27;20577;-62
2022/03/26 02:21:51;;;;;;;10.75;9.85;;;-3.70;99.90;;;;;;5126168;27;20548;-61
2022/03/26 02:24:30;;;;;;;12.10;10.95;;;-3.70;99.90;;;;;;5106440;27;20578;-62
2022/03/26 02:27:11;;;;;;;11.10;10.00;;;-3.60;99.90;;;;;;5106252;27;20619;-61
2022/03/26 02:29:50;;;;;;;11.00;10.00;;;-3.40;99.90;;;;;;5105408;27;20554;-61
2022/03/26 02:32:30;;;;;;;11.30;10.27;;;-3.40;99.90;;;;;;5104784;27;20550;-61
2022/03/26 02:35:10;;;;;;;10.88;9.75;;;-3.50;99.90;;;;;;5145288;27;20538;-61
2022/03/26 02:37:49;;;;;;;12.85;11.75;;;-3.60;99.90;;;;;;5105762;27;20570;-61
2022/03/26 02:40:29;;;;;;;11.15;10.23;;;-3.60;99.90;;;;;;5106053;27;21074;-62
2022/03/26 02:43:10;;;;;;;12.05;10.88;;;-3.60;99.90;;;;;;5085954;27;20555;-62
2022/03/26 02:45:49;;;;;;;11.27;10.38;;;-3.80;99.90;;;;;;5085902;27;20553;-61
2022/03/26 02:48:29;;;;;;;11.23;10.18;;;-3.90;99.90;;;;;;5106665;27;20983;-61
2022/03/26 02:51:09;;;;;;;12.48;11.05;;;-3.90;99.90;;;;;;5081790;27;20597;-62
2022/03/26 02:53:48;;;;;;;19.83;12.27;;;-4.00;99.90;;;;;;5105166;27;20992;-62
2022/03/26 02:56:28;;;;;;;12.38;11.18;;;-4.00;99.90;;;;;;5083936;27;21161;-61
2022/03/26 02:59:08;;;;;;;11.55;10.48;;;-3.90;99.90;;;;;;5105889;27;20542;-61
2022/03/26 03:01:48;;;;;;;11.05;9.95;;;-4.00;99.90;;;;;;5147388;27;20538;-61
2022/03/26 03:04:28;;;;;;;11.30;10.30;;;-4.00;99.90;;;;;;5107062;27;20590;-61
2022/03/26 03:07:07;;;;;;;11.82;10.73;;;-4.00;99.90;;;;;;5086377;27;20983;-61
2022/03/26 03:09:47;;;;;;;11.15;10.20;;;-4.10;99.90;;;;;;5085850;27;20828;-61
2022/03/26 03:12:28;;;;;;;12.50;11.50;;;-4.10;99.90;;;;;;5163011;27;20561;-61
2022/03/26 03:15:08;;;;;;;11.48;10.40;;;-4.20;99.90;;;;;;5104956;27;20568;-61
2022/03/26 03:17:49;;;;;;;12.20;10.98;;;-4.30;99.90;;;;;;5147348;27;20884;-61
2022/03/26 03:20:29;;;;;;;12.48;11.35;;;-4.40;99.90;;;;;;5086212;28;20557;-61
2022/03/26 03:23:10;;;;;;;11.77;10.68;;;-4.50;99.90;;;;;;5086841;27;20555;-61
2022/03/26 03:25:49;;;;;;;12.02;10.88;;;-4.50;99.90;;;;;;5106520;27;20534;-61
2022/03/26 03:28:29;;;;;;;13.43;12.10;;;-4.50;99.90;;;;;;5147617;27;20554;-61
2022/03/26 03:31:09;;;;;;;14.63;13.35;;;-4.40;99.90;;;;;;5083370;28;20584;-61
2022/03/26 03:33:49;;;;;;;13.25;11.95;;;-4.40;99.90;;;;;;5125820;27;20672;-61
2022/03/26 03:36:29;;;;;;;13.05;11.80;;;-4.30;99.90;;;;;;5100096;27;20580;-61
2022/03/26 03:39:09;;;;;;;14.50;12.20;;;-4.30;99.90;;;;;;5105711;27;20682;-61
2022/03/26 03:41:48;;;;;;;14.18;12.23;;;-4.30;99.90;;;;;;5106030;27;20542;-61
2022/03/26 03:44:28;;;;;;;16.40;11.77;;;-4.40;99.90;;;;;;5086142;27;20569;-61
2022/03/26 03:47:09;;;;;;;13.27;11.77;;;-4.40;99.90;;;;;;5086020;27;20565;-61
2022/03/26 03:49:48;;;;;;;14.00;11.65;;;-4.50;99.90;;;;;;5105917;27;20897;-61
2022/03/26 03:52:28;;;;;;;15.07;12.25;;;-4.50;99.90;;;;;;5083096;27;20967;-61
2022/03/26 03:55:08;;;;;;;12.68;11.52;;;-4.50;99.90;;;;;;5084651;27;20550;-61
2022/03/26 03:57:47;;;;;;;14.25;12.13;;;-4.40;99.90;;;;;;5105828;27;20691;-61
2022/03/26 04:00:27;;;;;;;12.95;11.63;;;-4.40;99.90;;;;;;5105716;27;20653;-61
2022/03/26 04:03:07;;;;;;;11.85;10.85;;;-4.40;99.90;;;;;;5086055;27;20565;-61
2022/03/26 04:05:47;;;;;;;13.13;11.35;;;-4.40;99.90;;;;;;5086168;27;21040;-61
2022/03/26 04:08:28;;;;;;;23.02;16.75;;;-4.50;99.90;;;;;;5147713;27;20542;-61
2022/03/26 04:11:08;;;;;;;20.50;15.48;;;-4.60;99.90;;;;;;5105776;27;20893;-61
2022/03/26 04:13:50;;;;;;;19.27;16.73;;;-4.60;99.90;;;;;;5127181;27;20532;-61
2022/03/26 04:16:29;;;;;;;14.18;12.63;;;-4.60;99.90;;;;;;5106127;27;20557;-61
2022/03/26 04:19:10;;;;;;;22.23;16.15;;;-4.60;99.90;;;;;;5085094;27;20577;-61
2022/03/26 04:21:49;;;;;;;14.30;12.75;;;-4.70;99.90;;;;;;5083044;27;20632;-61
2022/03/26 04:24:29;;;;;;;16.60;14.15;;;-4.80;99.90;;;;;;5104738;27;20709;-61
2022/03/26 04:27:09;;;;;;;12.77;11.63;;;-4.90;99.90;;;;;;5106018;27;20575;-61
2022/03/26 04:29:48;;;;;;;19.63;15.85;;;-4.90;99.90;;;;;;5085552;27;20560;-61
2022/03/26 04:32:30;;;;;;;24.42;17.80;;;-4.90;99.90;;;;;;5086337;27;20575;-61
2022/03/26 04:35:11;;;;;;;23.40;17.55;;;-4.90;99.90;;;;;;5106272;27;20570;-61
2022/03/26 04:37:52;;;;;;;20.98;17.15;;;-4.90;99.90;;;;;;5126597;27;20539;-61
2022/03/26 04:40:32;;;;;;;22.90;16.65;;;-4.90;99.90;;;;;;5104692;27;20995;-62
2022/03/26 04:43:11;;;;;;;21.42;15.77;;;-4.90;99.90;;;;;;5081266;27;20607;-61
2022/03/26 04:45:51;;;;;;;25.17;17.48;;;-4.90;99.90;;;;;;5084457;28;20675;-61
2022/03/26 04:48:31;;;;;;;17.20;15.40;;;-5.00;99.90;;;;;;5139804;27;20693;-61
2022/03/26 04:51:10;;;;;;;20.40;15.13;;;-5.00;99.90;;;;;;5085970;27;20582;-61
2022/03/26 04:53:50;;;;;;;20.33;16.13;;;-5.00;99.90;;;;;;5106198;27;21082;-61
2022/03/26 04:56:30;;;;;;;22.77;16.45;;;-5.00;99.90;;;;;;5105741;27;20953;-62
2022/03/26 04:59:10;;;;;;;23.48;17.70;;;-5.00;99.90;;;;;;5085477;27;20570;-61
2022/03/26 05:01:50;;;;;;;18.65;14.77;;;-5.00;99.90;;;;;;5085765;27;20586;-61
2022/03/26 05:04:30;;;;;;;21.00;16.27;;;-5.00;99.90;;;;;;5083432;27;20979;-61
2022/03/26 05:10:04;;;;;;;20.13;15.85;;;-5.10;99.90;;;;;;5104907;27;20546;-61
2022/03/26 05:12:44;;;;;;;18.77;15.68;;;-5.00;99.90;;;;;;5167441;27;20892;-61
2022/03/26 05:15:24;;;;;;;20.77;15.73;;;-4.90;99.90;;;;;;5085761;28;21328;-61
2022/03/26 05:18:03;;;;;;;26.23;18.55;;;-4.90;99.90;;;;;;5126622;27;20532;-61
2022/03/26 05:20:43;;;;;;;24.38;17.55;;;-4.90;99.90;;;;;;5083125;27;20572;-61
2022/03/26 05:23:23;;;;;;;27.50;19.50;;;-4.80;99.90;;;;;;5104172;27;21069;-61
2022/03/26 05:26:03;;;;;;;30.45;20.40;;;-4.70;99.90;;;;;;5105568;27;20577;-61
2022/03/26 05:28:42;;;;;;;33.50;21.15;;;-4.60;99.90;;;;;;5083742;27;20608;-61
2022/03/26 05:31:22;;;;;;;28.92;18.48;;;-4.50;99.90;;;;;;5096182;27;21157;-61
2022/03/26 05:34:02;;;;;;;27.33;19.08;;;-4.40;99.90;;;;;;5105094;27;20583;-61
2022/03/26 05:36:42;;;;;;;24.95;19.08;;;-4.20;99.90;;;;;;5125838;27;20668;-61
2022/03/26 05:39:22;;;;;;;25.00;18.85;;;-4.10;99.90;;;;;;5085263;27;20572;-61
2022/03/26 05:42:01;;;;;;;24.67;19.40;;;-4.00;99.90;;;;;;5103787;27;21021;-61
2022/03/26 05:44:41;;;;;;;27.80;20.33;;;-3.90;99.90;;;;;;5145126;27;20538;-61
2022/03/26 05:47:23;;;;;;;30.88;21.10;;;-3.90;99.90;;;;;;5085515;27;20924;-61
2022/03/26 05:50:03;;;;;;;28.73;20.10;;;-3.80;99.90;;;;;;5085769;28;21076;-61
2022/03/26 05:52:42;;;;;;;25.30;19.52;;;-3.50;99.90;;;;;;5106044;27;21155;-61
2022/03/26 05:55:22;;;;;;;27.92;20.08;;;-3.20;99.90;;;;;;5085744;27;20573;-61
2022/03/26 05:58:02;;;;;;;22.77;17.40;;;-3.10;99.90;;;;;;5086155;27;20548;-61
2022/03/26 06:00:42;;;;;;;24.75;18.38;;;-3.00;99.90;;;;;;5080735;27;20585;-61
2022/03/26 06:03:22;;;;;;;23.77;17.88;;;-2.80;99.90;;;;;;5103786;27;21021;-61
2022/03/26 06:06:01;;;;;;;27.75;19.90;;;-2.70;99.90;;;;;;5153957;27;20545;-61
2022/03/26 06:08:41;;;;;;;28.60;22.10;;;-2.60;99.90;;;;;;5106059;27;20554;-61
2022/03/26 06:11:23;;;;;;;28.42;21.98;;;-2.50;99.90;;;;;;5139821;27;20571;-61
2022/03/26 06:14:03;;;;;;;26.83;20.58;;;-2.30;99.90;;;;;;5084527;27;21137;-61
2022/03/26 06:16:42;;;;;;;30.30;22.48;;;-2.10;99.90;;;;;;5085525;27;20577;-61
2022/03/26 06:19:23;;;;;;;29.35;21.00;;;-2.00;99.90;;;;;;5085801;28;20551;-61
2022/03/26 06:22:02;;;;;;;22.63;19.65;;;-1.90;99.90;;;;;;5086446;27;20944;-61
2022/03/26 06:24:42;;;;;;;26.30;20.50;;;-1.70;99.90;;;;;;5126352;27;20536;-61
2022/03/26 06:27:22;;;;;;;28.40;19.30;;;-1.50;99.90;;;;;;5085797;27;20547;-61
2022/03/26 06:30:01;;;;;;;23.92;18.58;;;-1.40;99.90;;;;;;5085648;27;20916;-61
2022/03/26 06:32:41;;;;;;;22.27;17.90;;;-1.30;99.90;;;;;;5105786;27;20553;-61
2022/03/26 06:35:22;;;;;;;22.42;18.85;;;-1.20;99.90;;;;;;5085939;28;20572;-61
2022/03/26 06:38:01;;;;;;;20.23;18.00;;;-1.00;99.90;;;;;;5105770;27;20992;-61
2022/03/26 06:40:41;;;;;;;22.05;18.77;;;-0.80;99.90;;;;;;5085023;27;20555;-61
2022/03/26 06:43:21;;;;;;;17.45;15.73;;;-0.70;99.90;;;;;;5085758;27;20569;-61
2022/03/26 06:46:00;;;;;;;20.10;16.75;;;-0.60;99.90;;;;;;5147173;27;20534;-61
2022/03/26 06:48:40;;;;;;;21.77;16.23;;;-0.40;99.90;;;;;;5086215;27;20565;-61
2022/03/26 06:51:20;;;;;;;21.88;15.77;;;-0.30;99.90;;;;;;5102948;27;21046;-61
2022/03/26 06:54:00;;;;;;;16.75;15.00;;;-0.20;99.90;;;;;;5067911;27;21157;-61
2022/03/26 06:56:40;;;;;;;18.20;15.02;;;-0.10;99.90;;;;;;5085012;27;20569;-61
2022/03/26 06:59:21;;;;;;;16.10;14.48;;;0.00;99.90;;;;;;5126470;27;20532;-61
2022/03/26 07:01:59;;;;;;;16.00;14.25;;;0.00;99.90;;;;;;5126282;27;21025;-61
2022/03/26 07:04:39;;;;;;;16.38;14.68;;;0.10;99.90;;;;;;5106277;27;21227;-61
2022/03/26 07:07:19;;;;;;;16.20;14.57;;;0.20;99.90;;;;;;5085929;27;20547;-61
2022/03/26 07:09:59;;;;;;;16.52;14.93;;;0.20;99.90;;;;;;5144485;27;20558;-61
2022/03/26 07:12:39;;;;;;;16.27;14.68;;;0.40;99.90;;;;;;5082960;27;20585;-60
2022/03/26 07:15:18;;;;;;;17.00;13.95;;;0.60;99.90;;;;;;5119795;27;20887;-61
2022/03/26 07:17:59;;;;;;;17.25;14.95;;;0.80;99.90;;;;;;5085762;28;21006;-60
2022/03/26 07:20:38;;;;;;;17.60;15.80;;;1.10;99.90;;;;;;5085318;27;20555;-60
2022/03/26 07:23:18;;;;;;;17.33;15.55;;;1.20;99.90;;;;;;5085470;27;20880;-61
2022/03/26 07:25:58;;;;;;;17.52;15.65;;;1.40;99.90;;;;;;5077277;27;20577;-60
2022/03/26 07:28:38;;;;;;;17.25;15.40;;;1.60;99.90;;;;;;5102654;27;20580;-60
2022/03/26 07:31:17;;;;;;;18.50;16.60;;;1.80;99.90;;;;;;5085040;27;20596;-58
2022/03/26 07:33:57;;;;;;;20.88;17.77;;;1.90;99.90;;;;;;5084327;27;21080;-60
2022/03/26 07:36:37;;;;;;;19.55;17.08;;;2.10;99.90;;;;;;5084785;27;20559;-61
2022/03/26 07:39:17;;;;;;;20.30;17.48;;;2.30;99.90;;;;;;5106121;27;20564;-60
2022/03/26 07:41:57;;;;;;;18.42;16.50;;;2.50;99.90;;;;;;5126138;27;20556;-60
2022/03/26 07:44:37;;;;;;;20.65;17.30;;;2.80;99.90;;;;;;5085860;27;20942;-60
2022/03/26 07:47:16;;;;;;;20.52;16.73;;;3.00;99.90;;;;;;5086047;27;21125;-61
2022/03/26 07:49:56;;;;;;;21.77;17.60;;;3.30;99.90;;;;;;5104776;27;20545;-61
2022/03/26 07:52:36;;;;;;;21.30;17.27;;;3.50;99.90;;;;;;5069292;27;20583;-60
2022/03/26 07:55:16;;;;;;;23.83;16.48;;;3.80;99.90;;;;;;5084246;27;20566;-60
2022/03/26 07:57:56;;;;;;;19.48;17.42;;;4.10;99.90;;;;;;5106309;27;21202;-60
2022/03/26 08:00:36;;;;;;;20.95;17.05;;;4.20;99.90;;;;;;5126684;27;20535;-60
2022/03/26 08:03:15;;;;;;;19.08;17.30;;;4.50;99.90;;;;;;5085527;28;20543;-60
2022/03/26 08:05:56;;;;;;;21.65;18.58;;;4.70;99.90;;;;;;5126200;27;20547;-60
2022/03/26 08:08:37;;;;;;;20.63;18.63;;;4.90;99.90;;;;;;5083687;27;20608;-60
2022/03/26 08:11:17;;;;;;;20.08;18.08;;;5.20;99.90;;;;;;5103642;27;20566;-60
2022/03/26 08:13:56;;;;;;;20.88;17.23;;;5.40;99.90;;;;;;5104922;27;20568;-60
2022/03/26 08:16:36;;;;;;;21.42;19.25;;;5.70;99.90;;;;;;5084469;27;20565;-60
2022/03/26 08:19:17;;;;;;;20.40;18.20;;;5.90;99.90;;;;;;5105256;27;20590;-59
2022/03/26 08:21:56;;;;;;;24.95;20.45;;;6.20;99.90;;;;;;5147612;27;20558;-60
2022/03/26 08:24:36;;;;;;;26.33;21.17;;;6.50;99.90;;;;;;5086184;27;20536;-60
2022/03/26 08:27:15;;;;;;;26.85;20.60;;;6.70;99.90;;;;;;5147840;27;20534;-60
2022/03/26 08:29:55;;;;;;;35.08;20.85;;;6.90;99.90;;;;;;5085460;27;20548;-61
2022/03/26 08:32:35;;;;;;;24.35;21.67;;;7.10;99.90;;;;;;5085881;27;20553;-59
2022/03/26 08:35:15;;;;;;;25.67;20.50;;;7.30;99.90;;;;;;5118842;27;20547;-61
2022/03/26 08:37:55;;;;;;;23.30;20.25;;;7.40;99.90;;;;;;5084951;27;20971;-61
2022/03/26 08:40:38;;;;;;;25.17;21.38;;;7.60;99.90;;;;;;5134993;27;20543;-60
2022/03/26 08:43:19;;;;;;;27.48;22.35;;;7.80;99.90;;;;;;5147701;27;20472;-58
2022/03/26 08:45:58;;;;;;;26.33;21.35;;;8.00;99.90;;;;;;5106648;27;20538;-60
2022/03/26 08:48:37;;;;;;;25.23;22.00;;;8.10;99.90;;;;;;5085724;28;20541;-60
2022/03/26 08:51:18;;;;;;;26.17;22.70;;;8.20;99.90;;;;;;5125782;27;20706;-60
2022/03/26 08:53:57;;;;;;;24.85;21.67;;;8.40;99.90;;;;;;5105149;27;21259;-60
2022/03/26 08:56:37;;;;;;;25.00;21.98;;;8.60;99.90;;;;;;5118030;27;20550;-60
2022/03/26 08:59:16;;;;;;;30.83;23.08;;;8.80;99.90;;;;;;5085611;28;20671;-60
2022/03/26 09:01:56;;;;;;;28.55;22.38;;;8.90;99.90;;;;;;5106580;27;20541;-60
2022/03/26 09:04:36;;;;;;;25.75;21.85;;;9.10;99.90;;;;;;5106776;27;20558;-60
2022/03/26 09:07:16;;;;;;;25.30;22.40;;;9.30;99.90;;;;;;5085528;27;20987;-60
2022/03/26 09:09:56;;;;;;;30.98;22.67;;;9.40;99.90;;;;;;5083581;27;20608;-60
2022/03/26 09:12:36;;;;;;;28.85;24.17;;;9.60;99.90;;;;;;5084708;27;20581;-60
2022/03/26 09:15:16;;;;;;;30.60;23.92;;;9.70;99.90;;;;;;5139775;27;20543;-57
2022/03/26 09:17:55;;;;;;;26.10;22.25;;;9.80;99.90;;;;;;5106667;27;20558;-60
2022/03/26 09:20:36;;;;;;;27.02;21.50;;;10.10;99.90;;;;;;5085629;27;21028;-60
2022/03/26 09:23:15;;;;;;;30.92;23.33;;;10.20;99.90;;;;;;5086788;28;20551;-60
2022/03/26 09:25:55;;;;;;;26.58;21.73;;;10.30;99.90;;;;;;5085944;27;20624;-60
2022/03/26 09:28:35;;;;;;;26.92;20.80;;;10.50;99.90;;;;;;5086378;27;20543;-60
2022/03/26 09:31:15;;;;;;;25.15;22.10;;;10.60;99.90;;;;;;5096328;27;20600;-60
2022/03/26 09:33:54;;;;;;;25.35;21.83;;;10.80;99.90;;;;;;5085163;27;21033;-60
2022/03/26 09:36:34;;;;;;;25.55;20.88;;;11.00;99.90;;;;;;5106134;27;20542;-60
2022/03/26 09:39:14;;;;;;;29.05;20.65;;;11.20;99.90;;;;;;5126512;27;20684;-60
2022/03/26 09:41:55;;;;;;;29.58;22.70;;;11.30;99.90;;;;;;5085913;27;20581;-60
2022/03/26 09:44:34;;;;;;;24.23;21.80;;;11.40;99.90;;;;;;5105638;27;20599;-60
2022/03/26 09:47:13;;;;;;;24.35;21.95;;;11.40;99.90;;;;;;5086539;28;21034;-58
2022/03/26 09:49:53;;;;;;;28.20;23.38;;;11.60;99.90;;;;;;5145327;27;20562;-60
2022/03/26 09:52:34;;;;;;;22.50;20.23;;;11.70;99.90;;;;;;5143785;27;20677;-60
2022/03/26 09:55:13;;;;;;;26.55;21.73;;;11.70;99.90;;;;;;5104818;27;20868;-60
2022/03/26 09:57:53;;;;;;;23.33;17.80;;;11.90;99.90;;;;;;5106126;27;20560;-60
2022/03/26 10:00:34;;;;;;;26.17;20.27;;;11.90;99.90;;;;;;5084067;27;20652;-60
2022/03/26 10:03:14;;;;;;;23.38;20.60;;;12.00;99.90;;;;;;5092307;27;20970;-60
2022/03/26 10:06:04;;;;;;;26.35;22.85;;;12.10;99.90;;;;;;5106079;27;20567;-59
2022/03/26 10:08:43;;;;;;;30.77;22.05;;;12.20;99.90;;;;;;5085535;28;20539;-60
2022/03/26 10:11:23;;;;;;;25.83;20.90;;;12.20;99.90;;;;;;5082578;27;20597;-60
2022/03/26 10:14:03;;;;;;;27.83;22.13;;;12.30;99.90;;;;;;5068523;27;20568;-60
2022/03/26 10:16:52;;;;;;;21.20;19.15;;;12.40;99.90;;;;;;5085784;28;20581;-60
2022/03/26 10:19:36;;;;;;;25.35;21.75;;;12.50;99.90;;;;;;5085853;27;20544;-60
2022/03/26 10:22:40;;;;;;;24.08;21.48;;;12.50;99.90;;;;;;5153149;27;20548;-60
2022/03/26 10:25:23;;;;;;;22.50;20.25;;;12.50;99.90;;;;;;5110589;27;20963;-60
2022/03/26 10:28:02;;;;;;;22.92;20.58;;;12.50;99.90;;;;;;5104857;27;20607;-61
2022/03/26 10:33:39;;;;;;;24.17;20.00;;;12.70;99.90;;;;;;5104580;27;20669;-60
2022/03/26 10:36:22;;;;;;;25.00;20.65;;;12.90;99.90;;;;;;5085279;28;20663;-60
2022/03/26 10:39:02;;;;;;;23.52;21.13;;;13.00;99.90;;;;;;5148390;27;20545;-60
2022/03/26 10:41:42;;;;;;;24.05;21.50;;;13.20;99.90;;;;;;5082922;28;20596;-60
2022/03/26 10:44:25;;;;;;;22.70;20.30;;;13.20;99.90;;;;;;5104781;27;21059;-60
2022/03/26 10:47:07;;;;;;;28.77;20.30;;;13.20;99.90;;;;;;5086008;28;20567;-60
2022/03/26 10:49:46;;;;;;;21.88;19.50;;;13.20;99.90;;;;;;5085778;27;20540;-60
2022/03/26 10:52:32;;;;;;;22.67;19.98;;;13.30;99.90;;;;;;5086309;27;20565;-60
2022/03/26 10:55:15;;;;;;;28.73;20.33;;;13.20;99.90;;;;;;5086253;27;20543;-60
2022/03/26 10:57:55;;;;;;;23.35;20.40;;;13.30;99.90;;;;;;5086748;27;21105;-60
2022/03/26 11:00:36;;;;;;;25.98;19.95;;;13.40;99.90;;;;;;5083016;27;20559;-60
2022/03/26 11:03:16;;;;;;;25.63;18.75;;;13.40;99.90;;;;;;5105691;27;20530;-60
2022/03/26 11:05:57;;;;;;;22.58;19.65;;;13.40;99.90;;;;;;5085446;27;20548;-60
2022/03/26 11:08:38;;;;;;;22.67;19.63;;;13.40;99.90;;;;;;5148681;27;20530;-60
2022/03/26 11:11:19;;;;;;;23.27;19.08;;;13.60;99.90;;;;;;5078208;28;21103;-60
2022/03/26 11:14:02;;;;;;;24.77;20.35;;;13.60;99.90;;;;;;5086559;27;20913;-60
2022/03/26 11:16:55;;;;;;;24.88;18.27;;;13.60;99.90;;;;;;5086598;27;20531;-60
2022/03/26 11:19:49;;;;;;;24.15;20.08;;;13.60;99.90;;;;;;5106541;27;20550;-60
2022/03/26 11:22:35;;;;;;;20.67;18.48;;;13.60;99.90;;;;;;5093963;27;20561;-60
2022/03/26 11:25:36;;;;;;;21.95;17.90;;;13.70;99.90;;;;;;5105373;27;20568;-60
2022/03/26 11:28:58;;;;;;;21.75;18.67;;;13.70;99.90;;;;;;5086580;27;20528;-60
2022/03/26 11:31:47;;;;;;;19.75;17.67;;;13.80;99.90;;;;;;5086313;27;20583;-60
2022/03/26 11:34:33;;;;;;;20.60;18.52;;;13.80;99.90;;;;;;5147560;27;20547;-60
2022/03/26 11:37:14;;;;;;;19.88;17.98;;;14.00;99.90;;;;;;5086419;27;20544;-60
2022/03/26 11:39:56;;;;;;;20.38;18.17;;;14.20;99.90;;;;;;5085321;27;20557;-59
2022/03/26 11:42:38;;;;;;;23.42;17.90;;;14.30;96.60;;;;;;5085201;27;20988;-60
2022/03/26 11:51:19;;;;;;;22.10;19.08;;;14.30;94.30;;;;;;5085663;28;21097;-60
2022/03/26 11:54:06;;;;;;;26.25;17.33;;;14.30;92.90;;;;;;5086132;28;20605;-60
2022/03/26 11:56:47;;;;;;;21.52;16.77;;;14.30;92.30;;;;;;5076129;28;20625;-61
2022/03/26 11:59:28;;;;;;;24.25;16.30;;;14.40;92.40;;;;;;5104661;27;20952;-60
2022/03/26 12:02:24;;;;;;;20.27;14.90;;;14.50;93.00;;;;;;5082825;28;21037;-60
2022/03/26 12:08:17;;;;;;;22.60;16.73;;;14.70;84.70;;;;;;5085115;28;20668;-58
2022/03/26 12:10:58;;;;;;;26.02;17.15;;;14.60;83.40;;;;;;5110906;27;20555;-59
2022/03/26 12:13:38;;;;;;;19.05;16.35;;;14.60;78.90;;;;;;5155754;27;20542;-58
2022/03/26 12:16:18;;;;;;;24.70;18.10;;;14.70;82.10;;;;;;5105618;27;20569;-58
2022/03/26 12:18:58;;;;;;;21.67;18.20;;;14.80;81.00;;;;;;5105989;27;21014;-57
2022/03/26 12:21:50;;;;;;;18.33;16.17;;;14.80;80.00;;;;;;5095266;27;20576;-58
2022/03/26 12:24:31;;;;;;;22.25;17.42;;;14.80;73.30;;;;;;5086519;28;20660;-56
2022/03/26 12:27:10;;;;;;;17.02;14.85;;;14.80;72.60;;;;;;5085506;28;20668;-57
2022/03/26 12:29:50;;;;;;;19.08;14.70;;;14.80;70.20;;;;;;5081314;27;20605;-59
2022/03/26 12:32:32;;;;;;;21.92;14.52;;;14.80;69.40;;;;;;5106257;27;20576;-59
2022/03/26 12:35:13;;;;;;;20.05;13.80;;;14.80;70.20;;;;;;5106138;27;20555;-58
2022/03/26 12:37:52;;;;;;;17.73;11.85;;;15.00;58.90;;;;;;5085443;28;21072;-58
2022/03/26 12:40:33;;;;;;;19.75;12.73;;;15.00;62.60;;;;;;5099114;27;20569;-59
2022/03/26 12:43:12;;;;;;;19.17;10.52;;;15.10;56.10;;;;;;5105273;27;20547;-56
2022/03/26 12:45:54;;;;;;;14.32;12.43;;;15.10;47.20;;;;;;5125899;27;20544;-58
2022/03/26 12:48:33;;;;;;;14.10;10.63;;;15.10;52.80;;;;;;5154306;27;20533;-58
2022/03/26 12:51:13;;;;;;;16.23;11.85;;;15.10;54.20;;;;;;5077773;28;20689;-59
2022/03/26 12:53:53;;;;;;;15.18;12.15;;;15.00;54.50;;;;;;5085298;27;20540;-58
2022/03/26 12:56:35;;;;;;;18.35;13.38;;;15.10;57.40;;;;;;5085557;27;20573;-58
2022/03/26 12:59:16;;;;;;;14.85;10.25;;;15.20;54.70;;;;;;5085123;27;20552;-58
2022/03/26 13:01:58;;;;;;;23.85;9.55;;;15.20;49.20;;;;;;5146872;27;21063;-58
2022/03/26 13:04:39;;;;;;;14.77;9.60;;;15.20;47.70;;;;;;5087040;28;20576;-58
2022/03/26 13:07:18;;;;;;;12.68;8.70;;;15.10;47.10;;;;;;5084899;27;20674;-58
2022/03/26 13:09:58;;;;;;;9.02;7.82;;;15.10;46.60;;;;;;5103684;27;20561;-58
2022/03/26 13:12:38;;;;;;;16.20;8.23;;;15.30;47.00;;;;;;5103438;27;20587;-58
2022/03/26 13:15:20;;;;;;;10.32;8.15;;;15.40;46.20;;;;;;5105075;27;20560;-58
2022/03/26 13:18:01;;;;;;;12.63;5.95;;;15.30;46.00;;;;;;5126238;27;20563;-58
2022/03/26 13:20:41;;;;;;;9.27;5.13;;;15.40;38.50;;;;;;5151188;22;20633;-59
2022/03/26 13:23:21;;;;;;;11.60;6.00;;;15.40;41.90;;;;;;5146084;27;21093;-59
2022/03/26 13:26:04;;;;;;;12.10;6.57;;;15.40;40.10;;;;;;5105144;27;20541;-59
2022/03/26 13:28:43;;;;;;;7.45;6.00;;;15.30;42.40;;;;;;5083416;27;20550;-60
2022/03/26 13:31:25;;;;;;;8.60;5.03;;;15.30;41.00;;;;;;5099056;27;20592;-59
2022/03/26 13:34:11;;;;;;;11.95;6.60;;;15.30;41.40;;;;;;5144235;27;20564;-59
2022/03/26 13:36:51;;;;;;;11.73;7.20;;;15.40;46.00;;;;;;5104875;27;20545;-59
2022/03/26 13:39:31;;;;;;;11.15;6.95;;;15.50;45.50;;;;;;5123313;27;20569;-59
2022/03/26 13:42:14;;;;;;;13.73;7.55;;;15.50;47.70;;;;;;5144881;27;21018;-59
2022/03/26 13:44:55;;;;;;;10.23;8.15;;;15.50;47.50;;;;;;5124094;27;20540;-58
2022/03/26 13:47:37;;;;;;;8.00;7.20;;;15.50;46.80;;;;;;5104501;27;20546;-60
2022/03/26 13:50:16;;;;;;;11.02;7.72;;;15.40;47.00;;;;;;5124145;27;21088;-59
2022/03/26 13:52:56;;;;;;;10.20;7.05;;;15.30;48.20;;;;;;5082489;27;20567;-59